createdAt,value
2022-08-07T00:02:35.536Z,9.23
2022-08-07T00:04:01.199Z,8.80
2022-08-07T00:06:33.473Z,8.90
2022-08-07T00:09:17.054Z,8.68
2022-08-07T00:11:55.510Z,8.65
2022-08-07T00:14:31.462Z,8.82
2022-08-07T00:17:02.705Z,8.63
2022-08-07T00:20:00.259Z,9.40
2022-08-07T00:22:34.578Z,9.40
2022-08-07T00:25:07.384Z,9.05
2022-08-07T00:27:53.465Z,9.13
2022-08-07T00:30:27.590Z,9.83
2022-08-07T00:32:59.891Z,8.82
2022-08-07T00:35:30.042Z,9.40
2022-08-07T00:38:01.061Z,9.50
2022-08-07T00:40:40.079Z,9.07
2022-08-07T00:43:58.702Z,9.30
2022-08-07T00:46:00.302Z,9.07
2022-08-07T00:48:31.854Z,9.73
2022-08-07T00:51:01.077Z,8.85
2022-08-07T00:53:39.339Z,9.13
2022-08-07T00:56:15.683Z,9.33
2022-08-07T00:58:46.569Z,9.10
2022-08-07T01:01:15.143Z,9.63
2022-08-07T01:03:56.120Z,9.38
2022-08-07T01:06:30.027Z,9.05
2022-08-07T01:09:00.799Z,9.10
2022-08-07T01:12:23.740Z,9.50
2022-08-07T01:14:16.889Z,9.63
2022-08-07T01:16:46.854Z,9.43
2022-08-07T01:19:19.043Z,9.70
2022-08-07T01:21:48.309Z,9.70
2022-08-07T01:24:18.755Z,10.27
2022-08-07T01:26:51.640Z,9.63
2022-08-07T01:29:19.812Z,8.95
2022-08-07T01:31:48.635Z,9.35
2022-08-07T01:34:15.654Z,8.80
2022-08-07T01:36:44.108Z,10.07
2022-08-07T01:39:11.836Z,9.68
2022-08-07T01:42:07.134Z,9.77
2022-08-07T01:44:27.781Z,9.65
2022-08-07T01:46:54.662Z,9.53
2022-08-07T01:49:22.311Z,9.23
2022-08-07T01:52:04.170Z,9.13
2022-08-07T01:54:36.960Z,9.32
2022-08-07T01:57:24.119Z,9.30
2022-08-07T02:00:02.137Z,9.37
2022-08-07T02:03:15.952Z,9.75
2022-08-07T02:05:43.072Z,9.57
2022-08-07T02:08:19.234Z,9.30
2022-08-07T02:10:55.296Z,9.63
2022-08-07T02:13:58.245Z,9.90
2022-08-07T02:16:16.045Z,9.57
2022-08-07T02:18:47.279Z,10.10
2022-08-07T02:21:16.609Z,9.50
2022-08-07T02:23:45.065Z,10.05
2022-08-07T02:26:33.865Z,9.90
2022-08-07T02:29:03.146Z,9.40
2022-08-07T02:31:32.573Z,9.13
2022-08-07T02:34:03.274Z,10.23
2022-08-07T02:36:33.796Z,9.93
2022-08-07T02:39:09.441Z,9.40
2022-08-07T02:41:47.365Z,10.10
2022-08-07T02:44:21.432Z,9.73
2022-08-07T02:46:52.506Z,11.48
2022-08-07T02:49:56.183Z,10.10
2022-08-07T02:52:10.130Z,9.77
2022-08-07T02:54:42.763Z,9.68
2022-08-07T02:57:14.304Z,9.50
2022-08-07T02:59:45.660Z,10.05
2022-08-07T03:02:22.731Z,12.20
2022-08-07T03:04:51.847Z,12.67
2022-08-07T03:07:21.574Z,10.80
2022-08-07T03:10:08.928Z,11.88
2022-08-07T03:12:37.221Z,12.57
2022-08-07T03:15:07.802Z,19.80
2022-08-07T03:17:53.785Z,13.60
2022-08-07T03:20:22.165Z,12.05
2022-08-07T03:22:50.759Z,13.02
2022-08-07T03:25:21.156Z,12.27
2022-08-07T03:27:59.400Z,12.30
2022-08-07T03:30:37.476Z,12.73
2022-08-07T03:33:08.530Z,11.77
2022-08-07T03:35:50.037Z,12.52
2022-08-07T03:38:21.197Z,12.38
2022-08-07T03:40:57.727Z,13.10
2022-08-07T03:43:26.679Z,12.97
2022-08-07T03:46:00.135Z,12.88
2022-08-07T03:48:31.980Z,16.55
2022-08-07T03:51:02.003Z,13.80
2022-08-07T03:54:01.923Z,13.40
2022-08-07T03:56:32.719Z,13.50
2022-08-07T03:59:08.138Z,13.25
2022-08-07T04:01:43.091Z,13.40
2022-08-07T04:04:13.630Z,18.70
2022-08-07T04:06:45.385Z,15.63
2022-08-07T04:09:15.363Z,13.97
2022-08-07T04:12:28.182Z,14.18
2022-08-07T04:14:38.925Z,13.32
2022-08-07T04:17:20.478Z,13.88
2022-08-07T04:19:54.024Z,12.10
2022-08-07T04:22:28.685Z,12.00
2022-08-07T04:24:58.548Z,11.98
2022-08-07T04:27:26.667Z,13.45
2022-08-07T04:30:01.349Z,12.80
2022-08-07T04:32:34.364Z,12.27
2022-08-07T04:35:07.223Z,12.50
2022-08-07T04:37:52.705Z,11.48
2022-08-07T04:40:29.838Z,12.48
2022-08-07T04:43:02.085Z,12.98
2022-08-07T04:45:57.581Z,12.38
2022-08-07T04:48:40.548Z,12.23
2022-08-07T04:51:31.990Z,11.20
2022-08-07T04:54:36.881Z,12.43
2022-08-07T04:58:13.692Z,12.63
2022-08-07T05:00:14.556Z,13.10
2022-08-07T05:03:59.776Z,13.70
2022-08-07T05:06:20.094Z,13.90
2022-08-07T05:09:46.355Z,11.98
2022-08-07T05:12:26.794Z,12.07
2022-08-07T05:15:21.685Z,11.07
2022-08-07T05:17:57.062Z,10.60
2022-08-07T05:20:33.678Z,10.02
2022-08-07T05:23:07.121Z,9.10
2022-08-07T05:26:13.606Z,8.68
2022-08-07T05:28:34.498Z,8.63
2022-08-07T05:31:03.658Z,8.67
2022-08-07T05:33:35.574Z,8.43
2022-08-07T05:36:07.001Z,8.02
2022-08-07T05:39:01.140Z,7.95
2022-08-07T05:42:02.207Z,7.47
2022-08-07T05:44:17.231Z,7.30
2022-08-07T05:46:56.640Z,7.07
2022-08-07T05:49:23.775Z,7.00
2022-08-07T05:51:50.455Z,6.45
2022-08-07T05:54:30.091Z,6.90
2022-08-07T05:56:59.057Z,7.10
2022-08-07T05:59:27.393Z,6.70
2022-08-07T06:01:55.751Z,6.63
2022-08-07T06:04:30.032Z,6.32
2022-08-07T06:07:03.651Z,7.03
2022-08-07T06:10:03.833Z,6.10
2022-08-07T06:12:21.145Z,5.60
2022-08-07T06:15:05.614Z,5.90
2022-08-07T06:17:37.621Z,5.43
2022-08-07T06:20:06.117Z,6.28
2022-08-07T06:22:44.599Z,5.70
2022-08-07T06:25:28.854Z,6.13
2022-08-07T06:28:10.176Z,5.80
2022-08-07T06:30:45.873Z,5.55
2022-08-07T06:33:16.534Z,5.70
2022-08-07T06:35:48.148Z,5.70
2022-08-07T06:38:30.853Z,5.60
2022-08-07T06:41:01.124Z,5.53
2022-08-07T06:43:39.633Z,5.20
2022-08-07T06:46:13.445Z,5.25
2022-08-07T06:48:42.142Z,5.20
2022-08-07T06:51:31.341Z,5.30
2022-08-07T06:55:29.695Z,5.45
2022-08-07T06:56:54.292Z,5.53
2022-08-07T07:00:13.502Z,5.55
2022-08-07T07:02:48.223Z,5.70
2022-08-07T07:05:12.902Z,4.78
2022-08-07T07:07:59.982Z,5.72
2022-08-07T07:10:33.315Z,5.10
2022-08-07T07:13:10.026Z,4.95
2022-08-07T07:15:44.515Z,4.70
2022-08-07T07:18:47.059Z,4.93
2022-08-07T07:21:27.077Z,5.05
2022-08-07T07:24:12.668Z,4.50
2022-08-07T07:26:52.009Z,4.47
2022-08-07T07:29:55.757Z,4.33
2022-08-07T07:32:12.974Z,4.43
2022-08-07T07:34:45.969Z,4.63
2022-08-07T07:37:44.417Z,4.00
2022-08-07T07:40:10.174Z,3.42
2022-08-07T07:42:47.032Z,4.40
2022-08-07T07:45:24.511Z,3.70
2022-08-07T07:48:11.246Z,3.80
2022-08-07T07:50:40.318Z,3.53
2022-08-07T07:53:20.455Z,3.38
2022-08-07T07:55:57.884Z,3.77
2022-08-07T07:58:37.075Z,3.50
2022-08-07T08:02:01.737Z,3.70
2022-08-07T08:04:10.704Z,3.60
2022-08-07T08:06:51.148Z,3.90
2022-08-07T08:09:23.211Z,3.60
2022-08-07T08:12:01.871Z,3.50
2022-08-07T08:14:31.704Z,3.60
2022-08-07T08:17:55.676Z,3.00
2022-08-07T08:20:17.252Z,3.30
2022-08-07T08:23:01.718Z,3.13
2022-08-07T08:25:50.918Z,3.08
2022-08-07T08:28:23.974Z,3.30
2022-08-07T08:31:15.621Z,3.20
2022-08-07T08:33:49.330Z,3.30
2022-08-07T08:36:30.080Z,3.30
2022-08-07T08:39:02.160Z,2.95
2022-08-07T08:41:58.510Z,3.10
2022-08-07T08:44:44.343Z,2.90
2022-08-07T08:47:17.437Z,2.80
2022-08-07T08:50:05.148Z,2.77
2022-08-07T08:52:53.928Z,2.60
2022-08-07T08:55:55.429Z,3.00
2022-08-07T08:58:39.766Z,2.90
2022-08-07T09:01:29.813Z,2.90
2022-08-07T09:04:18.854Z,3.00
2022-08-07T09:07:03.342Z,2.70
2022-08-07T09:09:49.067Z,2.80
2022-08-07T09:13:01.504Z,3.10
2022-08-07T09:16:20.055Z,2.60
2022-08-07T09:18:47.317Z,2.40
2022-08-07T09:21:34.220Z,2.33
2022-08-07T09:24:30.559Z,2.50
2022-08-07T09:27:29.701Z,2.30
2022-08-07T09:30:09.347Z,2.30
2022-08-07T09:33:05.231Z,2.13
2022-08-07T09:36:09.651Z,2.45
2022-08-07T09:38:59.956Z,2.30
2022-08-07T09:41:58.555Z,2.40
2022-08-07T09:47:52.418Z,2.20
2022-08-07T09:48:06.324Z,2.30
2022-08-07T09:52:16.189Z,2.35
2022-08-07T09:54:08.252Z,2.10
2022-08-07T09:57:13.001Z,2.20
2022-08-07T10:00:14.553Z,2.08
2022-08-07T10:02:55.660Z,2.40
2022-08-07T10:05:58.223Z,2.30
2022-08-07T10:08:46.093Z,2.42
2022-08-07T10:12:02.433Z,2.20
2022-08-07T10:14:54.349Z,2.47
2022-08-07T10:18:00.309Z,2.20
2022-08-07T10:20:50.177Z,2.60
2022-08-07T10:24:06.480Z,2.50
2022-08-07T10:26:54.194Z,2.33
2022-08-07T10:29:58.585Z,2.25
2022-08-07T10:32:59.784Z,2.40
2022-08-07T10:36:11.420Z,2.28
2022-08-07T10:39:10.837Z,2.28
2022-08-07T10:41:53.281Z,2.30
2022-08-07T10:44:54.693Z,2.10
2022-08-07T10:47:52.545Z,2.10
2022-08-07T10:50:35.443Z,2.40
2022-08-07T10:53:27.581Z,2.25
2022-08-07T10:56:31.205Z,2.33
2022-08-07T10:59:47.589Z,2.20
2022-08-07T11:02:34.092Z,2.33
2022-08-07T11:05:13.700Z,2.40
2022-08-07T11:07:58.527Z,2.20
2022-08-07T11:10:39.777Z,2.30
2022-08-07T11:14:45.087Z,2.47
2022-08-07T11:16:30.815Z,2.40
2022-08-07T11:19:21.754Z,2.13
2022-08-07T11:22:26.593Z,2.40
2022-08-07T11:25:20.293Z,2.38
2022-08-07T11:28:08.624Z,2.40
2022-08-07T11:30:48.040Z,2.20
2022-08-07T11:33:59.450Z,2.25
2022-08-07T11:36:39.292Z,2.50
2022-08-07T11:39:10.071Z,2.53
2022-08-07T11:42:08.496Z,2.70
2022-08-07T11:45:05.461Z,2.03
2022-08-07T11:48:13.854Z,2.15
2022-08-07T11:50:59.565Z,2.20
2022-08-07T11:54:01.600Z,2.50
2022-08-07T11:56:56.387Z,2.45
2022-08-07T12:00:12.466Z,2.50
2022-08-07T12:03:41.403Z,2.20
2022-08-07T12:06:50.261Z,2.38
2022-08-07T12:09:35.505Z,2.20
2022-08-07T12:12:25.897Z,2.30
2022-08-07T12:15:17.043Z,2.50
2022-08-07T12:18:29.933Z,2.50
2022-08-07T12:22:35.657Z,2.47
2022-08-07T12:24:38.431Z,2.30
2022-08-07T12:27:16.183Z,2.45
2022-08-07T12:30:04.060Z,2.40
2022-08-07T12:32:42.093Z,2.42
2022-08-07T12:35:13.499Z,2.40
2022-08-07T12:38:09.784Z,2.45
2022-08-07T12:40:48.882Z,2.47
2022-08-07T12:44:03.011Z,2.47
2022-08-07T12:46:26.417Z,2.40
2022-08-07T12:49:51.048Z,2.58
2022-08-07T12:52:46.340Z,2.30
2022-08-07T12:55:40.726Z,2.10
2022-08-07T12:58:12.961Z,2.33
2022-08-07T13:01:00.083Z,2.40
2022-08-07T13:03:54.775Z,2.40
2022-08-07T13:06:58.873Z,2.17
2022-08-07T13:10:29.140Z,2.28
2022-08-07T13:13:10.931Z,2.30
2022-08-07T13:15:58.801Z,2.38
2022-08-07T13:18:57.095Z,2.50
2022-08-07T13:21:51.743Z,2.50
2022-08-07T13:24:35.296Z,2.20
2022-08-07T13:27:15.686Z,2.20
2022-08-07T13:30:03.591Z,2.30
2022-08-07T13:32:54.051Z,2.55
2022-08-07T13:36:00.436Z,2.20
2022-08-07T13:38:37.923Z,2.47
2022-08-07T13:41:25.601Z,2.20
2022-08-07T13:44:00.284Z,2.30
2022-08-07T13:46:36.559Z,2.50
2022-08-07T13:49:08.768Z,2.42
2022-08-07T13:52:22.661Z,2.72
2022-08-07T13:54:49.280Z,4.80
2022-08-07T13:57:32.049Z,2.38
2022-08-07T14:00:02.023Z,2.50
2022-08-07T14:02:49.500Z,2.30
2022-08-07T14:05:25.259Z,2.20
2022-08-07T14:08:06.100Z,2.30
2022-08-07T14:10:42.057Z,2.38
2022-08-07T14:13:33.639Z,2.55
2022-08-07T14:16:04.708Z,2.60
2022-08-07T14:18:50.003Z,2.50
2022-08-07T14:22:41.208Z,2.30
2022-08-07T14:24:28.079Z,2.30
2022-08-07T14:26:58.573Z,2.47
2022-08-07T14:30:07.446Z,2.30
2022-08-07T14:32:24.895Z,2.20
2022-08-07T14:34:53.380Z,2.10
2022-08-07T14:37:23.860Z,2.20
2022-08-07T14:43:57.075Z,2.20
2022-08-07T14:45:56.524Z,2.50
2022-08-07T14:48:28.809Z,2.37
2022-08-07T14:51:01.807Z,2.30
2022-08-07T14:54:08.981Z,2.30
2022-08-07T14:56:30.224Z,2.10
2022-08-07T14:59:02.685Z,2.40
2022-08-07T15:01:50.873Z,2.50
2022-08-07T15:04:21.771Z,2.50
2022-08-07T15:06:52.753Z,2.60
2022-08-07T15:09:59.529Z,2.47
2022-08-07T15:15:21.398Z,2.60
2022-08-07T15:18:33.847Z,2.65
2022-08-07T15:21:58.669Z,2.70
2022-08-07T15:25:13.685Z,2.42
2022-08-07T15:27:11.207Z,2.90
2022-08-07T15:30:04.494Z,2.70
2022-08-07T15:35:18.297Z,2.67
2022-08-07T15:38:18.370Z,2.60
2022-08-07T15:43:55.879Z,2.63
2022-08-07T15:46:31.804Z,2.90
2022-08-07T15:49:14.672Z,2.80
2022-08-07T15:54:39.249Z,2.80
2022-08-07T15:57:10.816Z,2.80
2022-08-07T15:59:59.450Z,2.50
2022-08-07T16:02:38.647Z,2.75
2022-08-07T16:05:20.116Z,2.40
2022-08-07T16:08:32.439Z,3.10
2022-08-07T16:10:43.081Z,2.63
2022-08-07T16:13:39.623Z,2.70
2022-08-07T16:16:48.850Z,2.65
2022-08-07T16:19:42.591Z,2.50
2022-08-07T16:22:55.253Z,3.10
2022-08-07T16:25:54.716Z,2.90
2022-08-07T16:29:18.384Z,2.90
2022-08-07T16:31:57.222Z,2.85
2022-08-07T16:34:49.950Z,2.83
2022-08-07T16:38:06.926Z,2.92
2022-08-07T16:40:57.224Z,2.73
2022-08-07T16:44:05.887Z,2.80
2022-08-07T16:47:07.897Z,2.75
2022-08-07T16:50:27.449Z,3.22
2022-08-07T16:53:14.696Z,2.80
2022-08-07T16:56:02.708Z,3.03
2022-08-07T16:59:10.581Z,2.78
2022-08-07T17:01:57.247Z,3.10
2022-08-07T17:04:36.922Z,3.17
2022-08-07T17:07:55.776Z,3.38
2022-08-07T17:10:32.327Z,3.30
2022-08-07T17:14:17.854Z,3.25
2022-08-07T17:16:56.071Z,3.30
2022-08-07T17:20:01.571Z,3.15
2022-08-07T17:22:42.464Z,3.20
2022-08-07T17:25:47.586Z,3.10
2022-08-07T17:28:19.496Z,3.28
2022-08-07T17:31:00.698Z,3.55
2022-08-07T17:34:15.570Z,3.40
2022-08-07T17:37:00.676Z,3.50
2022-08-07T17:39:57.883Z,3.27
2022-08-07T17:42:30.159Z,3.13
2022-08-07T17:44:58.948Z,3.33
2022-08-07T17:47:38.476Z,3.20
2022-08-07T17:50:46.821Z,3.00
2022-08-07T17:53:59.574Z,3.30
2022-08-07T17:56:26.145Z,3.20
2022-08-07T17:59:03.630Z,3.40
2022-08-07T18:02:29.359Z,3.40
2022-08-07T18:06:01.716Z,3.30
2022-08-07T18:09:01.405Z,3.40
2022-08-07T18:12:16.287Z,3.20
2022-08-07T18:15:33.042Z,3.17
2022-08-07T18:18:47.600Z,3.30
2022-08-07T18:21:38.185Z,3.17
2022-08-07T18:24:08.939Z,3.23
2022-08-07T18:26:57.215Z,3.30
2022-08-07T18:30:08.032Z,2.90
2022-08-07T18:32:32.766Z,3.30
2022-08-07T18:35:02.316Z,3.20
2022-08-07T18:38:54.851Z,4.00
2022-08-07T18:40:43.915Z,3.63
2022-08-07T18:43:43.394Z,3.30
2022-08-07T18:46:37.311Z,3.15
2022-08-07T18:50:32.459Z,3.30
2022-08-07T18:52:54.434Z,3.20
2022-08-07T18:56:04.131Z,3.30
2022-08-07T18:58:59.873Z,3.25
2022-08-07T19:02:32.263Z,3.20
2022-08-07T19:04:57.513Z,3.60
2022-08-07T19:08:05.684Z,3.63
2022-08-07T19:10:51.314Z,3.15
2022-08-07T19:13:51.038Z,3.58
2022-08-07T19:17:07.644Z,3.42
2022-08-07T19:20:28.799Z,3.30
2022-08-07T19:23:18.433Z,3.80
2022-08-07T19:26:23.328Z,3.22
2022-08-07T19:30:57.762Z,3.40
2022-08-07T19:32:08.294Z,3.42
2022-08-07T19:34:34.208Z,3.58
2022-08-07T19:37:09.909Z,3.40
2022-08-07T19:39:57.907Z,3.38
2022-08-07T19:42:31.575Z,3.50
2022-08-07T19:45:08.710Z,3.00
2022-08-07T19:47:42.138Z,3.47
2022-08-07T19:50:44.023Z,3.40
2022-08-07T19:52:58.441Z,3.85
2022-08-07T19:55:56.842Z,3.20
2022-08-07T19:58:16.184Z,3.53
2022-08-07T20:00:54.055Z,3.50
2022-08-07T20:03:34.891Z,3.60
2022-08-07T20:06:04.882Z,3.70
2022-08-07T20:08:38.920Z,3.78
2022-08-07T20:11:12.223Z,3.70
2022-08-07T20:13:46.536Z,3.50
2022-08-07T20:16:34.730Z,3.40
2022-08-07T20:19:06.024Z,3.70
2022-08-07T20:21:41.640Z,3.78
2022-08-07T20:24:24.103Z,3.50
2022-08-07T20:26:59.323Z,3.50
2022-08-07T20:29:47.950Z,3.53
2022-08-07T20:32:26.610Z,3.55
2022-08-07T20:35:11.298Z,3.60
2022-08-07T20:37:58.740Z,3.50
2022-08-07T20:40:32.017Z,3.70
2022-08-07T20:43:02.800Z,3.63
2022-08-07T20:46:28.293Z,3.30
2022-08-07T20:48:28.963Z,3.47
2022-08-07T20:50:58.997Z,3.67
2022-08-07T20:54:03.729Z,3.60
2022-08-07T20:56:16.048Z,3.30
2022-08-07T20:58:49.567Z,3.53
2022-08-07T21:01:20.870Z,3.50
2022-08-07T21:04:19.905Z,3.72
2022-08-07T21:06:42.403Z,3.70
2022-08-07T21:09:17.202Z,3.67
2022-08-07T21:11:51.057Z,3.58
2022-08-07T21:14:32.611Z,3.40
2022-08-07T21:18:00.362Z,3.38
2022-08-07T21:20:04.741Z,3.60
2022-08-07T21:22:51.271Z,3.47
2022-08-07T21:25:29.749Z,3.38
2022-08-07T21:28:48.174Z,3.85
2022-08-07T21:32:10.956Z,3.63
2022-08-07T21:34:48.687Z,3.83
2022-08-07T21:37:25.802Z,3.47
2022-08-07T21:40:08.708Z,3.67
2022-08-07T21:43:04.501Z,3.80
2022-08-07T21:46:05.428Z,3.60
2022-08-07T21:48:33.630Z,3.90
2022-08-07T21:51:51.039Z,3.93
2022-08-07T21:54:45.956Z,3.90
2022-08-07T21:57:44.988Z,4.05
2022-08-07T22:00:25.148Z,3.50
2022-08-07T22:03:30.620Z,3.50
2022-08-07T22:06:06.692Z,3.70
2022-08-07T22:08:46.110Z,3.80
2022-08-07T22:11:18.072Z,4.00
2022-08-07T22:13:53.052Z,4.10
2022-08-07T22:16:42.183Z,4.05
2022-08-07T22:19:23.689Z,3.80
2022-08-07T22:22:10.776Z,4.00
2022-08-07T22:25:10.758Z,4.05
2022-08-07T22:28:08.319Z,4.07
2022-08-07T22:30:53.103Z,4.15
2022-08-07T22:33:52.584Z,4.17
2022-08-07T22:36:46.391Z,3.90
2022-08-07T22:39:35.341Z,3.90
2022-08-07T22:42:25.911Z,4.10
2022-08-07T22:44:59.689Z,4.13
2022-08-07T22:48:31.352Z,4.20
2022-08-07T22:51:04.120Z,4.03
2022-08-07T22:54:05.196Z,4.20
2022-08-07T22:56:59.106Z,4.20
2022-08-07T22:59:46.968Z,4.15
2022-08-07T23:02:34.493Z,4.17
2022-08-07T23:06:10.293Z,4.07
2022-08-07T23:08:53.049Z,4.25
2022-08-07T23:11:22.773Z,4.10
2022-08-07T23:14:19.701Z,4.47
2022-08-07T23:17:15.916Z,4.07
2022-08-07T23:20:10.019Z,4.20
2022-08-07T23:22:49.613Z,4.20
2022-08-07T23:25:57.779Z,4.00
2022-08-07T23:28:48.812Z,3.78
2022-08-07T23:34:20.773Z,3.90
2022-08-07T23:35:01.867Z,4.07
2022-08-07T23:38:01.951Z,3.90
2022-08-07T23:40:49.401Z,4.13
2022-08-07T23:43:21.016Z,4.10
2022-08-07T23:46:03.019Z,4.10
2022-08-07T23:48:47.117Z,4.05
2022-08-07T23:53:05.707Z,4.35
2022-08-07T23:54:46.288Z,4.28
2022-08-07T23:57:36.303Z,4.80
